sensor_id;sensor_type;location;lat;lon;timestamp;P1;durP1;ratioP1;P2;durP2;ratioP2
8574;SDS011;4325;42.520;27.448;2024-01-11T00:00:45;7.53;;;3.63;;
8574;SDS011;4325;42.520;27.448;2024-01-11T00:03:14;10.80;;;5.30;;
8574;SDS011;4325;42.520;27.448;2024-01-11T00:05:41;7.13;;;4.17;;
8574;SDS011;4325;42.520;27.448;2024-01-11T00:08:08;8.97;;;4.00;;
8574;SDS011;4325;42.520;27.448;2024-01-11T00:10:37;8.40;;;3.87;;
8574;SDS011;4325;42.520;27.448;2024-01-11T00:13:04;6.50;;;3.57;;
8574;SDS011;4325;42.520;27.448;2024-01-11T00:15:31;7.20;;;3.63;;
8574;SDS011;4325;42.520;27.448;2024-01-11T00:17:58;6.33;;;3.43;;
8574;SDS011;4325;42.520;27.448;2024-01-11T00:20:26;7.13;;;3.47;;
8574;SDS011;4325;42.520;27.448;2024-01-11T00:22:53;6.17;;;3.63;;
8574;SDS011;4325;42.520;27.448;2024-01-11T00:25:20;9.63;;;4.97;;
8574;SDS011;4325;42.520;27.448;2024-01-11T00:27:48;9.90;;;3.70;;
8574;SDS011;4325;42.520;27.448;2024-01-11T00:30:15;7.53;;;3.23;;
8574;SDS011;4325;42.520;27.448;2024-01-11T00:32:42;6.87;;;3.50;;
8574;SDS011;4325;42.520;27.448;2024-01-11T00:35:09;6.47;;;3.77;;
8574;SDS011;4325;42.520;27.448;2024-01-11T00:37:38;7.30;;;3.63;;
8574;SDS011;4325;42.520;27.448;2024-01-11T00:40:05;8.10;;;3.63;;
8574;SDS011;4325;42.520;27.448;2024-01-11T00:42:33;9.17;;;3.50;;
8574;SDS011;4325;42.520;27.448;2024-01-11T00:45:00;5.67;;;3.37;;
8574;SDS011;4325;42.520;27.448;2024-01-11T00:47:27;9.40;;;4.47;;
8574;SDS011;4325;42.520;27.448;2024-01-11T00:49:54;8.97;;;4.83;;
8574;SDS011;4325;42.520;27.448;2024-01-11T00:52:21;10.50;;;4.07;;
8574;SDS011;4325;42.520;27.448;2024-01-11T00:54:50;8.53;;;4.13;;
8574;SDS011;4325;42.520;27.448;2024-01-11T00:57:17;7.67;;;3.90;;
8574;SDS011;4325;42.520;27.448;2024-01-11T00:59:44;6.67;;;3.77;;
8574;SDS011;4325;42.520;27.448;2024-01-11T01:02:11;7.77;;;4.63;;
8574;SDS011;4325;42.520;27.448;2024-01-11T01:04:38;7.90;;;3.53;;
8574;SDS011;4325;42.520;27.448;2024-01-11T01:07:05;10.27;;;4.47;;
8574;SDS011;4325;42.520;27.448;2024-01-11T01:09:32;8.03;;;4.27;;
8574;SDS011;4325;42.520;27.448;2024-01-11T01:12:01;10.00;;;4.43;;
8574;SDS011;4325;42.520;27.448;2024-01-11T01:14:28;9.27;;;4.60;;
8574;SDS011;4325;42.520;27.448;2024-01-11T01:16:55;8.93;;;4.20;;
8574;SDS011;4325;42.520;27.448;2024-01-11T01:19:22;6.77;;;4.03;;
8574;SDS011;4325;42.520;27.448;2024-01-11T01:21:49;8.83;;;4.00;;
8574;SDS011;4325;42.520;27.448;2024-01-11T01:24:17;9.47;;;3.90;;
8574;SDS011;4325;42.520;27.448;2024-01-11T01:26:44;6.30;;;3.77;;
8574;SDS011;4325;42.520;27.448;2024-01-11T01:29:12;12.20;;;4.17;;
8574;SDS011;4325;42.520;27.448;2024-01-11T01:31:40;9.60;;;4.10;;
8574;SDS011;4325;42.520;27.448;2024-01-11T01:34:07;6.77;;;3.60;;
8574;SDS011;4325;42.520;27.448;2024-01-11T01:36:34;6.90;;;3.60;;
8574;SDS011;4325;42.520;27.448;2024-01-11T01:39:01;7.83;;;4.50;;
8574;SDS011;4325;42.520;27.448;2024-01-11T01:41:28;6.40;;;3.60;;
8574;SDS011;4325;42.520;27.448;2024-01-11T01:43:55;9.50;;;4.23;;
8574;SDS011;4325;42.520;27.448;2024-01-11T01:46:24;7.30;;;4.37;;
8574;SDS011;4325;42.520;27.448;2024-01-11T01:48:52;6.87;;;4.00;;
8574;SDS011;4325;42.520;27.448;2024-01-11T01:51:21;9.37;;;4.13;;
8574;SDS011;4325;42.520;27.448;2024-01-11T01:53:48;10.77;;;4.57;;
8574;SDS011;4325;42.520;27.448;2024-01-11T01:56:18;8.93;;;4.07;;
8574;SDS011;4325;42.520;27.448;2024-01-11T01:58:46;8.50;;;4.37;;
8574;SDS011;4325;42.520;27.448;2024-01-11T02:01:16;10.37;;;4.10;;
8574;SDS011;4325;42.520;27.448;2024-01-11T02:03:46;8.50;;;3.83;;
8574;SDS011;4325;42.520;27.448;2024-01-11T02:06:16;7.57;;;3.80;;
8574;SDS011;4325;42.520;27.448;2024-01-11T02:08:45;6.50;;;3.40;;
8574;SDS011;4325;42.520;27.448;2024-01-11T02:11:12;8.10;;;4.10;;
8574;SDS011;4325;42.520;27.448;2024-01-11T02:13:40;9.67;;;4.33;;
8574;SDS011;4325;42.520;27.448;2024-01-11T02:16:07;6.67;;;3.53;;
8574;SDS011;4325;42.520;27.448;2024-01-11T02:18:34;9.90;;;4.13;;
8574;SDS011;4325;42.520;27.448;2024-01-11T02:21:03;8.00;;;4.27;;
8574;SDS011;4325;42.520;27.448;2024-01-11T02:23:35;8.00;;;4.27;;
8574;SDS011;4325;42.520;27.448;2024-01-11T02:26:08;10.43;;;4.30;;
8574;SDS011;4325;42.520;27.448;2024-01-11T02:28:35;7.87;;;3.53;;
8574;SDS011;4325;42.520;27.448;2024-01-11T02:31:02;10.03;;;4.10;;
8574;SDS011;4325;42.520;27.448;2024-01-11T02:33:29;11.80;;;5.27;;
8574;SDS011;4325;42.520;27.448;2024-01-11T02:35:56;11.97;;;4.40;;
8574;SDS011;4325;42.520;27.448;2024-01-11T02:38:23;9.37;;;4.47;;
8574;SDS011;4325;42.520;27.448;2024-01-11T02:40:50;7.83;;;3.80;;
8574;SDS011;4325;42.520;27.448;2024-01-11T02:43:19;9.53;;;4.37;;
8574;SDS011;4325;42.520;27.448;2024-01-11T02:45:46;10.90;;;4.43;;
8574;SDS011;4325;42.520;27.448;2024-01-11T02:48:13;10.50;;;4.37;;
8574;SDS011;4325;42.520;27.448;2024-01-11T02:50:40;7.90;;;3.90;;
8574;SDS011;4325;42.520;27.448;2024-01-11T02:53:07;10.33;;;4.10;;
8574;SDS011;4325;42.520;27.448;2024-01-11T02:55:34;8.50;;;4.40;;
8574;SDS011;4325;42.520;27.448;2024-01-11T02:58:01;8.00;;;4.17;;
8574;SDS011;4325;42.520;27.448;2024-01-11T03:00:30;8.90;;;4.37;;
8574;SDS011;4325;42.520;27.448;2024-01-11T03:02:57;10.53;;;4.57;;
8574;SDS011;4325;42.520;27.448;2024-01-11T03:05:24;12.07;;;4.93;;
8574;SDS011;4325;42.520;27.448;2024-01-11T03:07:51;8.17;;;4.17;;
8574;SDS011;4325;42.520;27.448;2024-01-11T03:10:18;7.80;;;4.10;;
8574;SDS011;4325;42.520;27.448;2024-01-11T03:12:45;11.13;;;5.47;;
8574;SDS011;4325;42.520;27.448;2024-01-11T03:15:14;9.70;;;4.57;;
8574;SDS011;4325;42.520;27.448;2024-01-11T03:17:42;8.93;;;4.20;;
8574;SDS011;4325;42.520;27.448;2024-01-11T03:20:10;7.97;;;3.97;;
8574;SDS011;4325;42.520;27.448;2024-01-11T03:22:44;8.13;;;4.63;;
8574;SDS011;4325;42.520;27.448;2024-01-11T03:25:11;9.60;;;4.30;;
8574;SDS011;4325;42.520;27.448;2024-01-11T03:27:38;8.40;;;3.70;;
8574;SDS011;4325;42.520;27.448;2024-01-11T03:30:06;7.90;;;4.10;;
8574;SDS011;4325;42.520;27.448;2024-01-11T03:32:34;9.93;;;4.43;;
8574;SDS011;4325;42.520;27.448;2024-01-11T03:35:02;9.13;;;4.73;;
8574;SDS011;4325;42.520;27.448;2024-01-11T03:37:30;8.97;;;4.30;;
8574;SDS011;4325;42.520;27.448;2024-01-11T03:39:57;11.83;;;4.00;;
8574;SDS011;4325;42.520;27.448;2024-01-11T03:42:24;7.10;;;4.27;;
8574;SDS011;4325;42.520;27.448;2024-01-11T03:44:51;7.20;;;3.90;;
8574;SDS011;4325;42.520;27.448;2024-01-11T03:47:18;8.40;;;4.23;;
8574;SDS011;4325;42.520;27.448;2024-01-11T03:49:45;8.10;;;4.13;;
8574;SDS011;4325;42.520;27.448;2024-01-11T03:52:13;7.53;;;3.90;;
8574;SDS011;4325;42.520;27.448;2024-01-11T03:54:40;8.03;;;4.47;;
8574;SDS011;4325;42.520;27.448;2024-01-11T03:57:07;11.70;;;4.50;;
8574;SDS011;4325;42.520;27.448;2024-01-11T03:59:34;9.97;;;4.57;;
8574;SDS011;4325;42.520;27.448;2024-01-11T04:02:01;9.07;;;4.67;;
8574;SDS011;4325;42.520;27.448;2024-01-11T04:04:28;8.60;;;4.80;;
8574;SDS011;4325;42.520;27.448;2024-01-11T04:06:56;8.00;;;4.03;;
8574;SDS011;4325;42.520;27.448;2024-01-11T04:09:25;6.23;;;3.30;;
8574;SDS011;4325;42.520;27.448;2024-01-11T04:11:52;7.53;;;4.17;;
8574;SDS011;4325;42.520;27.448;2024-01-11T04:14:19;9.50;;;5.17;;
8574;SDS011;4325;42.520;27.448;2024-01-11T04:16:46;11.90;;;5.13;;
8574;SDS011;4325;42.520;27.448;2024-01-11T04:19:13;9.97;;;4.53;;
8574;SDS011;4325;42.520;27.448;2024-01-11T04:21:40;9.97;;;4.93;;
8574;SDS011;4325;42.520;27.448;2024-01-11T04:24:07;9.03;;;4.60;;
8574;SDS011;4325;42.520;27.448;2024-01-11T04:26:36;10.40;;;5.53;;
8574;SDS011;4325;42.520;27.448;2024-01-11T04:29:03;7.47;;;4.00;;
8574;SDS011;4325;42.520;27.448;2024-01-11T04:31:30;12.87;;;4.63;;
8574;SDS011;4325;42.520;27.448;2024-01-11T04:33:57;7.50;;;3.97;;
8574;SDS011;4325;42.520;27.448;2024-01-11T04:36:24;10.50;;;4.20;;
8574;SDS011;4325;42.520;27.448;2024-01-11T04:38:51;11.23;;;5.63;;
8574;SDS011;4325;42.520;27.448;2024-01-11T04:41:18;10.40;;;4.80;;
8574;SDS011;4325;42.520;27.448;2024-01-11T04:43:47;9.93;;;4.30;;
8574;SDS011;4325;42.520;27.448;2024-01-11T04:46:14;11.57;;;4.53;;
8574;SDS011;4325;42.520;27.448;2024-01-11T04:48:42;8.67;;;4.27;;
8574;SDS011;4325;42.520;27.448;2024-01-11T04:51:10;8.77;;;4.77;;
8574;SDS011;4325;42.520;27.448;2024-01-11T04:53:37;9.83;;;5.87;;
8574;SDS011;4325;42.520;27.448;2024-01-11T04:56:06;12.97;;;5.57;;
8574;SDS011;4325;42.520;27.448;2024-01-11T04:58:33;10.40;;;5.03;;
8574;SDS011;4325;42.520;27.448;2024-01-11T05:01:03;12.20;;;6.07;;
8574;SDS011;4325;42.520;27.448;2024-01-11T05:03:30;11.90;;;5.43;;
8574;SDS011;4325;42.520;27.448;2024-01-11T05:05:57;11.63;;;5.73;;
8574;SDS011;4325;42.520;27.448;2024-01-11T05:08:25;10.93;;;5.40;;
8574;SDS011;4325;42.520;27.448;2024-01-11T05:10:52;14.50;;;6.47;;
8574;SDS011;4325;42.520;27.448;2024-01-11T05:13:20;12.97;;;7.23;;
8574;SDS011;4325;42.520;27.448;2024-01-11T05:15:47;13.90;;;6.90;;
8574;SDS011;4325;42.520;27.448;2024-01-11T05:18:15;13.70;;;6.10;;
8574;SDS011;4325;42.520;27.448;2024-01-11T05:20:42;13.10;;;6.50;;
8574;SDS011;4325;42.520;27.448;2024-01-11T05:23:09;11.13;;;6.40;;
8574;SDS011;4325;42.520;27.448;2024-01-11T05:25:36;11.63;;;6.60;;
8574;SDS011;4325;42.520;27.448;2024-01-11T05:28:03;12.80;;;6.53;;
8574;SDS011;4325;42.520;27.448;2024-01-11T05:30:31;13.97;;;6.30;;
8574;SDS011;4325;42.520;27.448;2024-01-11T05:32:58;10.83;;;6.07;;
8574;SDS011;4325;42.520;27.448;2024-01-11T05:35:26;13.63;;;6.67;;
8574;SDS011;4325;42.520;27.448;2024-01-11T05:37:53;13.70;;;7.03;;
8574;SDS011;4325;42.520;27.448;2024-01-11T05:40:21;14.20;;;6.67;;
8574;SDS011;4325;42.520;27.448;2024-01-11T05:42:48;11.70;;;5.93;;
8574;SDS011;4325;42.520;27.448;2024-01-11T05:45:15;11.77;;;6.00;;
8574;SDS011;4325;42.520;27.448;2024-01-11T05:47:43;12.10;;;5.70;;
8574;SDS011;4325;42.520;27.448;2024-01-11T05:50:10;16.60;;;7.23;;
8574;SDS011;4325;42.520;27.448;2024-01-11T05:52:39;13.33;;;6.87;;
8574;SDS011;4325;42.520;27.448;2024-01-11T05:55:06;13.37;;;6.93;;
8574;SDS011;4325;42.520;27.448;2024-01-11T05:57:34;16.33;;;7.27;;
8574;SDS011;4325;42.520;27.448;2024-01-11T06:00:01;14.87;;;7.37;;
8574;SDS011;4325;42.520;27.448;2024-01-11T06:02:28;17.90;;;8.87;;
8574;SDS011;4325;42.520;27.448;2024-01-11T06:04:56;17.40;;;8.33;;
8574;SDS011;4325;42.520;27.448;2024-01-11T06:07:23;19.43;;;9.67;;
8574;SDS011;4325;42.520;27.448;2024-01-11T06:09:52;19.90;;;8.77;;
8574;SDS011;4325;42.520;27.448;2024-01-11T06:12:19;15.00;;;8.10;;
8574;SDS011;4325;42.520;27.448;2024-01-11T06:14:46;13.73;;;7.73;;
8574;SDS011;4325;42.520;27.448;2024-01-11T06:17:13;17.30;;;7.93;;
8574;SDS011;4325;42.520;27.448;2024-01-11T06:19:40;13.97;;;7.57;;
8574;SDS011;4325;42.520;27.448;2024-01-11T06:22:07;20.17;;;9.47;;
8574;SDS011;4325;42.520;27.448;2024-01-11T06:24:35;17.93;;;8.27;;
8574;SDS011;4325;42.520;27.448;2024-01-11T06:27:03;19.67;;;9.30;;
8574;SDS011;4325;42.520;27.448;2024-01-11T06:29:31;15.77;;;7.90;;
8574;SDS011;4325;42.520;27.448;2024-01-11T06:31:58;18.50;;;8.97;;
8574;SDS011;4325;42.520;27.448;2024-01-11T06:34:25;20.03;;;9.93;;
8574;SDS011;4325;42.520;27.448;2024-01-11T06:36:53;20.67;;;10.43;;
8574;SDS011;4325;42.520;27.448;2024-01-11T06:39:20;26.80;;;12.47;;
8574;SDS011;4325;42.520;27.448;2024-01-11T06:41:47;19.27;;;9.43;;
8574;SDS011;4325;42.520;27.448;2024-01-11T06:44:15;19.53;;;10.03;;
8574;SDS011;4325;42.520;27.448;2024-01-11T06:46:43;23.97;;;10.43;;
8574;SDS011;4325;42.520;27.448;2024-01-11T06:49:10;25.70;;;11.53;;
8574;SDS011;4325;42.520;27.448;2024-01-11T06:51:37;18.87;;;9.07;;
8574;SDS011;4325;42.520;27.448;2024-01-11T06:54:04;24.17;;;9.10;;
8574;SDS011;4325;42.520;27.448;2024-01-11T06:56:31;17.67;;;7.97;;
8574;SDS011;4325;42.520;27.448;2024-01-11T06:58:58;16.73;;;8.67;;
8574;SDS011;4325;42.520;27.448;2024-01-11T07:01:26;24.20;;;10.83;;
8574;SDS011;4325;42.520;27.448;2024-01-11T07:03:53;23.90;;;11.77;;
8574;SDS011;4325;42.520;27.448;2024-01-11T07:06:21;21.93;;;11.10;;
8574;SDS011;4325;42.520;27.448;2024-01-11T07:08:48;16.00;;;8.00;;
8574;SDS011;4325;42.520;27.448;2024-01-11T07:11:15;14.97;;;9.93;;
8574;SDS011;4325;42.520;27.448;2024-01-11T07:13:42;17.33;;;9.20;;
8574;SDS011;4325;42.520;27.448;2024-01-11T07:16:09;19.67;;;10.07;;
8574;SDS011;4325;42.520;27.448;2024-01-11T07:18:37;21.70;;;10.93;;
8574;SDS011;4325;42.520;27.448;2024-01-11T07:21:05;22.93;;;11.00;;
8574;SDS011;4325;42.520;27.448;2024-01-11T07:23:32;21.53;;;11.40;;
8574;SDS011;4325;42.520;27.448;2024-01-11T07:26:00;22.93;;;10.20;;
8574;SDS011;4325;42.520;27.448;2024-01-11T07:28:28;16.40;;;8.50;;
8574;SDS011;4325;42.520;27.448;2024-01-11T07:30:55;22.97;;;11.10;;
8574;SDS011;4325;42.520;27.448;2024-01-11T07:33:22;25.67;;;11.47;;
8574;SDS011;4325;42.520;27.448;2024-01-11T07:35:50;21.50;;;11.73;;
8574;SDS011;4325;42.520;27.448;2024-01-11T07:38:17;24.37;;;13.30;;
8574;SDS011;4325;42.520;27.448;2024-01-11T07:40:44;22.47;;;11.33;;
8574;SDS011;4325;42.520;27.448;2024-01-11T07:43:11;25.27;;;12.53;;
8574;SDS011;4325;42.520;27.448;2024-01-11T07:45:39;26.20;;;11.90;;
8574;SDS011;4325;42.520;27.448;2024-01-11T07:48:06;27.13;;;11.33;;
8574;SDS011;4325;42.520;27.448;2024-01-11T07:50:33;36.97;;;11.70;;
8574;SDS011;4325;42.520;27.448;2024-01-11T07:53:02;24.30;;;12.07;;
8574;SDS011;4325;42.520;27.448;2024-01-11T07:55:30;20.87;;;10.53;;
8574;SDS011;4325;42.520;27.448;2024-01-11T07:57:58;20.00;;;9.43;;
8574;SDS011;4325;42.520;27.448;2024-01-11T08:00:25;15.73;;;7.70;;
8574;SDS011;4325;42.520;27.448;2024-01-11T08:02:52;15.17;;;8.20;;
8574;SDS011;4325;42.520;27.448;2024-01-11T08:05:19;18.33;;;9.37;;
8574;SDS011;4325;42.520;27.448;2024-01-11T08:07:46;21.37;;;11.03;;
8574;SDS011;4325;42.520;27.448;2024-01-11T08:10:15;24.73;;;10.23;;
8574;SDS011;4325;42.520;27.448;2024-01-11T08:12:42;14.30;;;7.73;;
8574;SDS011;4325;42.520;27.448;2024-01-11T08:15:09;13.20;;;6.33;;
8574;SDS011;4325;42.520;27.448;2024-01-11T08:17:37;12.90;;;7.17;;
8574;SDS011;4325;42.520;27.448;2024-01-11T08:20:05;11.23;;;6.07;;
8574;SDS011;4325;42.520;27.448;2024-01-11T08:22:33;12.90;;;6.60;;
8574;SDS011;4325;42.520;27.448;2024-01-11T08:25:01;12.30;;;6.37;;
8574;SDS011;4325;42.520;27.448;2024-01-11T08:27:31;11.63;;;7.43;;
8574;SDS011;4325;42.520;27.448;2024-01-11T08:29:58;20.33;;;10.17;;
8574;SDS011;4325;42.520;27.448;2024-01-11T08:32:26;17.40;;;9.20;;
8574;SDS011;4325;42.520;27.448;2024-01-11T08:34:54;16.20;;;8.47;;
8574;SDS011;4325;42.520;27.448;2024-01-11T08:37:21;15.10;;;7.23;;
8574;SDS011;4325;42.520;27.448;2024-01-11T08:39:48;18.73;;;8.13;;
8574;SDS011;4325;42.520;27.448;2024-01-11T08:42:15;14.60;;;7.97;;
8574;SDS011;4325;42.520;27.448;2024-01-11T08:44:44;13.67;;;8.73;;
8574;SDS011;4325;42.520;27.448;2024-01-11T08:47:12;13.17;;;9.33;;
8574;SDS011;4325;42.520;27.448;2024-01-11T08:49:40;12.00;;;8.07;;
8574;SDS011;4325;42.520;27.448;2024-01-11T08:52:07;9.97;;;6.13;;
8574;SDS011;4325;42.520;27.448;2024-01-11T08:54:34;9.43;;;6.43;;
8574;SDS011;4325;42.520;27.448;2024-01-11T08:57:01;10.97;;;7.40;;
8574;SDS011;4325;42.520;27.448;2024-01-11T08:59:28;11.33;;;7.07;;
8574;SDS011;4325;42.520;27.448;2024-01-11T09:01:57;8.93;;;6.33;;
8574;SDS011;4325;42.520;27.448;2024-01-11T09:04:24;13.30;;;7.03;;
8574;SDS011;4325;42.520;27.448;2024-01-11T09:06:53;10.63;;;8.07;;
8574;SDS011;4325;42.520;27.448;2024-01-11T09:09:21;12.37;;;8.20;;
8574;SDS011;4325;42.520;27.448;2024-01-11T09:11:48;9.30;;;6.80;;
8574;SDS011;4325;42.520;27.448;2024-01-11T09:14:15;12.93;;;7.40;;
8574;SDS011;4325;42.520;27.448;2024-01-11T09:16:42;9.77;;;7.87;;
8574;SDS011;4325;42.520;27.448;2024-01-11T09:19:12;10.17;;;7.10;;
8574;SDS011;4325;42.520;27.448;2024-01-11T09:21:39;13.93;;;9.77;;
8574;SDS011;4325;42.520;27.448;2024-01-11T09:24:07;16.60;;;7.63;;
8574;SDS011;4325;42.520;27.448;2024-01-11T09:26:34;10.70;;;6.77;;
8574;SDS011;4325;42.520;27.448;2024-01-11T09:29:02;12.10;;;7.37;;
8574;SDS011;4325;42.520;27.448;2024-01-11T09:31:29;8.77;;;6.47;;
8574;SDS011;4325;42.520;27.448;2024-01-11T09:33:56;8.73;;;6.57;;
8574;SDS011;4325;42.520;27.448;2024-01-11T09:36:27;9.50;;;5.70;;
8574;SDS011;4325;42.520;27.448;2024-01-11T09:38:54;7.27;;;5.27;;
8574;SDS011;4325;42.520;27.448;2024-01-11T09:41:22;12.70;;;5.30;;
8574;SDS011;4325;42.520;27.448;2024-01-11T09:43:49;5.17;;;4.20;;
8574;SDS011;4325;42.520;27.448;2024-01-11T09:46:22;8.60;;;4.10;;
8574;SDS011;4325;42.520;27.448;2024-01-11T09:48:51;6.70;;;4.53;;
8574;SDS011;4325;42.520;27.448;2024-01-11T09:51:20;5.50;;;4.50;;
8574;SDS011;4325;42.520;27.448;2024-01-11T09:53:49;7.23;;;5.00;;
8574;SDS011;4325;42.520;27.448;2024-01-11T09:56:18;9.53;;;5.60;;
8574;SDS011;4325;42.520;27.448;2024-01-11T09:58:46;11.17;;;7.10;;
8574;SDS011;4325;42.520;27.448;2024-01-11T10:01:15;8.60;;;5.97;;
8574;SDS011;4325;42.520;27.448;2024-01-11T10:03:43;12.07;;;5.83;;
8574;SDS011;4325;42.520;27.448;2024-01-11T10:06:11;11.67;;;5.93;;
8574;SDS011;4325;42.520;27.448;2024-01-11T10:08:38;11.73;;;7.57;;
8574;SDS011;4325;42.520;27.448;2024-01-11T10:11:07;13.87;;;7.47;;
8574;SDS011;4325;42.520;27.448;2024-01-11T10:13:34;9.37;;;6.10;;
8574;SDS011;4325;42.520;27.448;2024-01-11T10:16:07;9.90;;;7.30;;
8574;SDS011;4325;42.520;27.448;2024-01-11T10:18:35;12.17;;;5.73;;
8574;SDS011;4325;42.520;27.448;2024-01-11T10:21:02;11.40;;;6.37;;
8574;SDS011;4325;42.520;27.448;2024-01-11T10:23:32;7.50;;;5.03;;
8574;SDS011;4325;42.520;27.448;2024-01-11T10:26:00;7.93;;;5.90;;
8574;SDS011;4325;42.520;27.448;2024-01-11T10:28:28;5.43;;;4.40;;
8574;SDS011;4325;42.520;27.448;2024-01-11T10:30:56;7.50;;;4.77;;
8574;SDS011;4325;42.520;27.448;2024-01-11T10:33:23;8.73;;;4.67;;
8574;SDS011;4325;42.520;27.448;2024-01-11T10:35:50;5.13;;;4.47;;
8574;SDS011;4325;42.520;27.448;2024-01-11T10:38:17;6.93;;;4.17;;
8574;SDS011;4325;42.520;27.448;2024-01-11T10:40:45;6.47;;;4.50;;
8574;SDS011;4325;42.520;27.448;2024-01-11T10:43:12;7.27;;;4.57;;
8574;SDS011;4325;42.520;27.448;2024-01-11T10:45:47;7.17;;;4.87;;
8574;SDS011;4325;42.520;27.448;2024-01-11T10:48:19;6.83;;;5.50;;
8574;SDS011;4325;42.520;27.448;2024-01-11T10:50:49;7.67;;;5.33;;
8574;SDS011;4325;42.520;27.448;2024-01-11T10:53:25;5.63;;;4.77;;
8574;SDS011;4325;42.520;27.448;2024-01-11T10:55:58;5.67;;;4.77;;
8574;SDS011;4325;42.520;27.448;2024-01-11T10:58:26;5.87;;;4.50;;
8574;SDS011;4325;42.520;27.448;2024-01-11T11:00:54;5.87;;;4.43;;
8574;SDS011;4325;42.520;27.448;2024-01-11T11:03:24;5.53;;;4.87;;
8574;SDS011;4325;42.520;27.448;2024-01-11T11:05:53;7.43;;;5.00;;
8574;SDS011;4325;42.520;27.448;2024-01-11T11:08:22;7.27;;;4.50;;
8574;SDS011;4325;42.520;27.448;2024-01-11T11:10:54;4.83;;;4.10;;
8574;SDS011;4325;42.520;27.448;2024-01-11T11:13:23;4.97;;;3.80;;
8574;SDS011;4325;42.520;27.448;2024-01-11T11:15:50;9.00;;;4.53;;
8574;SDS011;4325;42.520;27.448;2024-01-11T11:18:20;6.43;;;4.63;;
8574;SDS011;4325;42.520;27.448;2024-01-11T11:20:47;3.93;;;3.53;;
8574;SDS011;4325;42.520;27.448;2024-01-11T11:23:16;6.53;;;4.67;;
8574;SDS011;4325;42.520;27.448;2024-01-11T11:25:45;4.97;;;3.90;;
8574;SDS011;4325;42.520;27.448;2024-01-11T11:28:14;5.33;;;3.30;;
8574;SDS011;4325;42.520;27.448;2024-01-11T11:30:43;4.73;;;3.80;;
8574;SDS011;4325;42.520;27.448;2024-01-11T11:33:11;3.93;;;3.23;;
8574;SDS011;4325;42.520;27.448;2024-01-11T11:35:44;4.43;;;3.20;;
8574;SDS011;4325;42.520;27.448;2024-01-11T11:38:16;5.00;;;3.73;;
8574;SDS011;4325;42.520;27.448;2024-01-11T11:40:46;6.63;;;4.47;;
8574;SDS011;4325;42.520;27.448;2024-01-11T11:43:15;8.27;;;6.33;;
8574;SDS011;4325;42.520;27.448;2024-01-11T11:45:43;11.43;;;8.77;;
8574;SDS011;4325;42.520;27.448;2024-01-11T11:51:19;8.73;;;5.60;;
8574;SDS011;4325;42.520;27.448;2024-01-11T11:53:47;8.07;;;5.07;;
8574;SDS011;4325;42.520;27.448;2024-01-11T11:56:16;5.10;;;4.37;;
8574;SDS011;4325;42.520;27.448;2024-01-11T11:58:44;5.70;;;4.40;;
8574;SDS011;4325;42.520;27.448;2024-01-11T12:01:11;5.73;;;4.60;;
8574;SDS011;4325;42.520;27.448;2024-01-11T12:03:40;5.37;;;4.43;;
8574;SDS011;4325;42.520;27.448;2024-01-11T12:06:14;6.03;;;5.20;;
8574;SDS011;4325;42.520;27.448;2024-01-11T12:08:43;5.10;;;4.10;;
8574;SDS011;4325;42.520;27.448;2024-01-11T12:11:12;5.17;;;4.20;;
8574;SDS011;4325;42.520;27.448;2024-01-11T12:13:41;5.27;;;4.03;;
8574;SDS011;4325;42.520;27.448;2024-01-11T12:16:09;5.17;;;4.07;;
8574;SDS011;4325;42.520;27.448;2024-01-11T12:18:37;9.77;;;3.83;;
8574;SDS011;4325;42.520;27.448;2024-01-11T12:21:04;10.13;;;3.80;;
8574;SDS011;4325;42.520;27.448;2024-01-11T12:23:33;5.30;;;3.40;;
8574;SDS011;4325;42.520;27.448;2024-01-11T12:26:02;4.37;;;3.40;;
8574;SDS011;4325;42.520;27.448;2024-01-11T12:28:31;3.90;;;3.50;;
8574;SDS011;4325;42.520;27.448;2024-01-11T12:30:58;7.00;;;3.60;;
8574;SDS011;4325;42.520;27.448;2024-01-11T12:33:26;5.47;;;4.07;;
8574;SDS011;4325;42.520;27.448;2024-01-11T12:35:54;5.77;;;4.27;;
8574;SDS011;4325;42.520;27.448;2024-01-11T12:38:21;5.23;;;3.83;;
8574;SDS011;4325;42.520;27.448;2024-01-11T12:40:48;6.37;;;3.43;;
8574;SDS011;4325;42.520;27.448;2024-01-11T12:43:17;6.10;;;3.60;;
8574;SDS011;4325;42.520;27.448;2024-01-11T12:45:45;8.70;;;3.90;;
8574;SDS011;4325;42.520;27.448;2024-01-11T12:48:12;4.20;;;3.20;;
8574;SDS011;4325;42.520;27.448;2024-01-11T12:50:41;3.00;;;2.77;;
8574;SDS011;4325;42.520;27.448;2024-01-11T12:53:09;3.50;;;3.20;;
8574;SDS011;4325;42.520;27.448;2024-01-11T12:55:43;3.63;;;3.33;;
8574;SDS011;4325;42.520;27.448;2024-01-11T12:58:10;3.13;;;2.67;;
8574;SDS011;4325;42.520;27.448;2024-01-11T13:00:38;4.67;;;3.23;;
8574;SDS011;4325;42.520;27.448;2024-01-11T13:03:06;10.47;;;3.20;;
8574;SDS011;4325;42.520;27.448;2024-01-11T13:05:34;4.07;;;2.90;;
8574;SDS011;4325;42.520;27.448;2024-01-11T13:08:03;3.40;;;3.10;;
8574;SDS011;4325;42.520;27.448;2024-01-11T13:10:34;6.57;;;3.90;;
8574;SDS011;4325;42.520;27.448;2024-01-11T13:13:02;5.70;;;4.27;;
8574;SDS011;4325;42.520;27.448;2024-01-11T13:15:30;3.93;;;3.10;;
8574;SDS011;4325;42.520;27.448;2024-01-11T13:17:59;5.53;;;4.03;;
8574;SDS011;4325;42.520;27.448;2024-01-11T13:20:27;7.03;;;5.20;;
8574;SDS011;4325;42.520;27.448;2024-01-11T13:25:40;6.83;;;5.57;;
8574;SDS011;4325;42.520;27.448;2024-01-11T13:28:07;5.13;;;4.50;;
8574;SDS011;4325;42.520;27.448;2024-01-11T13:30:36;6.80;;;5.07;;
8574;SDS011;4325;42.520;27.448;2024-01-11T13:33:05;7.10;;;5.10;;
8574;SDS011;4325;42.520;27.448;2024-01-11T13:35:33;7.57;;;5.17;;
8574;SDS011;4325;42.520;27.448;2024-01-11T13:38:00;3.10;;;2.80;;
8574;SDS011;4325;42.520;27.448;2024-01-11T13:40:28;3.07;;;2.77;;
8574;SDS011;4325;42.520;27.448;2024-01-11T13:42:55;5.73;;;2.57;;
8574;SDS011;4325;42.520;27.448;2024-01-11T13:45:22;4.27;;;3.07;;
8574;SDS011;4325;42.520;27.448;2024-01-11T13:47:49;5.00;;;2.87;;
8574;SDS011;4325;42.520;27.448;2024-01-11T13:50:18;5.40;;;3.80;;
8574;SDS011;4325;42.520;27.448;2024-01-11T13:52:45;4.97;;;3.23;;
8574;SDS011;4325;42.520;27.448;2024-01-11T13:55:12;5.63;;;3.40;;
8574;SDS011;4325;42.520;27.448;2024-01-11T13:57:40;8.03;;;3.97;;
8574;SDS011;4325;42.520;27.448;2024-01-11T14:00:08;4.50;;;3.73;;
8574;SDS011;4325;42.520;27.448;2024-01-11T14:02:37;4.83;;;4.00;;
8574;SDS011;4325;42.520;27.448;2024-01-11T14:05:06;4.73;;;3.40;;
8574;SDS011;4325;42.520;27.448;2024-01-11T14:07:38;5.93;;;4.63;;
8574;SDS011;4325;42.520;27.448;2024-01-11T14:10:05;7.20;;;2.93;;
8574;SDS011;4325;42.520;27.448;2024-01-11T14:12:34;5.33;;;3.20;;
8574;SDS011;4325;42.520;27.448;2024-01-11T14:15:07;6.57;;;3.60;;
8574;SDS011;4325;42.520;27.448;2024-01-11T14:17:37;4.93;;;3.40;;
8574;SDS011;4325;42.520;27.448;2024-01-11T14:20:05;5.73;;;3.17;;
8574;SDS011;4325;42.520;27.448;2024-01-11T14:22:39;8.10;;;3.50;;
8574;SDS011;4325;42.520;27.448;2024-01-11T14:25:07;5.60;;;3.47;;
8574;SDS011;4325;42.520;27.448;2024-01-11T14:27:36;13.27;;;3.90;;
8574;SDS011;4325;42.520;27.448;2024-01-11T14:30:03;11.00;;;3.23;;
8574;SDS011;4325;42.520;27.448;2024-01-11T14:32:31;9.83;;;2.53;;
8574;SDS011;4325;42.520;27.448;2024-01-11T14:34:58;6.07;;;2.93;;
8574;SDS011;4325;42.520;27.448;2024-01-11T14:37:29;4.33;;;2.50;;
8574;SDS011;4325;42.520;27.448;2024-01-11T14:39:58;8.73;;;3.93;;
8574;SDS011;4325;42.520;27.448;2024-01-11T14:42:25;12.60;;;3.10;;
8574;SDS011;4325;42.520;27.448;2024-01-11T14:44:52;16.50;;;3.93;;
8574;SDS011;4325;42.520;27.448;2024-01-11T14:47:21;12.40;;;5.07;;
8574;SDS011;4325;42.520;27.448;2024-01-11T14:49:49;11.23;;;4.23;;
8574;SDS011;4325;42.520;27.448;2024-01-11T14:52:16;10.60;;;5.00;;
8574;SDS011;4325;42.520;27.448;2024-01-11T14:54:43;19.30;;;6.10;;
8574;SDS011;4325;42.520;27.448;2024-01-11T14:57:12;15.57;;;5.73;;
8574;SDS011;4325;42.520;27.448;2024-01-11T14:59:39;13.87;;;5.50;;
8574;SDS011;4325;42.520;27.448;2024-01-11T15:02:07;12.97;;;5.50;;
8574;SDS011;4325;42.520;27.448;2024-01-11T15:04:34;15.77;;;5.53;;